メインページ
METAR-TAF:

METAR-TAF

空港 :

グランドラピッズ, ミシガン州, アメリカ合衆国

緯度: 42-52-51N, 経度: 085-31-22W, 海抜: 242m

現時点の気象観測

当レポートは21分前の01:53(UTC)に作成
西/南西の風 12kt
気温 28°C
湿度 55%
気圧 1015 hPa
視程: 16.1km
高度14000ftの雲はほとんどない
高度25000ftの雲は散在している

METAR: KGRR 160153Z 24012KT 10SM FEW140 SCT250 28/18 A2998 RMK AO2 SLP146 T02830183

時間: 22:14 (02:14 UTC)

予報

当レポートは2時間42分前の23:32(UTC)に作成
予報は16日の 00時(UTC)から 16日の 24時(UTC)まで有効
西/南西の風 13kt、最大25ktの突風を伴う
視程: 10km
高度5000ftの雲はほとんどない
高度25000ftの雲はほとんどない
16日の 0200時(UTC)から
南/南西の風 8kt
視程: 10km
高度12000ftの千切れ雲あり
16日の 1500時(UTC)から
南/南西の風 11kt
視程: 10km
高度2500ftの千切れ雲あり
16日の 1900時(UTC)から
南西の風 9kt
視程: 10km
高度5000ftの曇り

TAF: KGRR 152332Z 1600/1624 24013G25KT P6SM FEW050 FEW250 FM160200 21008KT P6SM BKN120 FM161500 20011KT P6SM BKN025 FM161900 22009KT P6SM OVC050

4,000以上の空港の気象観測と天気予報(METAR報とTAF報)

利用可能な観測所は地図上に黄色い丸と赤い丸で示す。

丸の上にカーソルを重ねると観測所名を参照できる。

次にクリックすると気象観測と天気予報を参照できる。

マップの切り替え:黒色「×」印の緑ボタンをクリックして拡大、「-」印の緑ボタンをクリックして縮小、緑色の三角印をクリックして隣りの地図に切り替え


METAR-TAF: